Lincoln, Idaho
Current Conditions -  °F | °C
As of 12:53 PM on Friday 19 Dec 2014 (Local Time) from KIDA Reporting Station
Haze Haze  
Wind Chill: 35°   Ceiling: 6500
Heat Index: 39°   Visibility: 10mi
Dew Point: 31°   Wind: 6mph
Humidity: 73%   Direction: 170°S
Pressure: 30.07"   Gusts: NA
Location:  43.498°N, 111.73°W
Report Text: KIDA 191953Z 17005KT 10SM HZ OVC065 04/M01 A3007 RMK AO2 SLP200 T00391006
Loading
Personal Weather Stations






























Interactive Weather Map New forecast layout! Learn more

10-Day Weather Forecast

Advertisements
Track Severe Weather on mobile